createdAt,value
2023-02-12T00:02:16.772Z,99555.84
2023-02-12T00:04:47.133Z,99549.19
2023-02-12T00:07:20.170Z,99554.25
2023-02-12T00:09:50.492Z,99548.34
2023-02-12T00:12:20.782Z,99549.16
2023-02-12T00:14:51.251Z,99545.63
2023-02-12T00:17:21.651Z,99546.03
2023-02-12T00:19:51.941Z,99550.72
2023-02-12T00:22:24.853Z,99546.44
2023-02-12T00:24:55.143Z,99546.06
2023-02-12T00:27:25.836Z,99539.47
2023-02-12T00:29:56.205Z,99544.13
2023-02-12T00:32:26.566Z,99539.81
2023-02-12T00:34:56.856Z,99548.81
2023-02-12T00:37:29.757Z,99548.44
2023-02-12T00:40:00.065Z,99548.44
2023-02-12T00:42:30.404Z,99552.31
2023-02-12T00:45:00.673Z,99554.25
2023-02-12T00:47:33.732Z,99552.63
2023-02-12T00:50:04.038Z,99567.19
2023-02-12T00:52:37.057Z,99561.69
2023-02-12T00:55:09.332Z,99562.91
2023-02-12T00:57:39.730Z,99566.06
2023-02-12T01:00:12.326Z,99568.38
2023-02-12T01:02:42.634Z,99572.31
2023-02-12T01:05:13.107Z,99569.94
2023-02-12T01:07:46.186Z,99574.63
2023-02-12T01:10:17.435Z,99582.94
2023-02-12T01:12:47.772Z,99584.16
2023-02-12T01:15:18.354Z,99588.00
2023-02-12T01:17:48.956Z,99583.69
2023-02-12T01:20:24.411Z,99591.13
2023-02-12T01:22:58.890Z,99591.13
2023-02-12T01:25:29.224Z,99585.59
2023-02-12T01:27:59.752Z,99590.31
2023-02-12T01:30:30.080Z,99576.19
2023-02-12T01:33:00.742Z,99582.09
2023-02-12T01:35:31.121Z,99581.31
2023-02-12T01:38:04.151Z,99580.88
2023-02-12T01:40:34.558Z,99579.75
2023-02-12T01:43:05.488Z,99584.03
2023-02-12T01:45:56.843Z,99584.41
2023-02-12T01:48:30.993Z,99584.84
2023-02-12T01:51:02.621Z,99587.25
2023-02-12T01:53:41.185Z,99586.03
2023-02-12T01:56:12.964Z,99584.84
2023-02-12T01:58:47.093Z,99583.25
2023-02-12T02:01:24.666Z,99589.91
2023-02-12T02:04:02.477Z,99588.75
2023-02-12T02:06:36.941Z,99589.94
2023-02-12T02:09:10.145Z,99597.81
2023-02-12T02:11:52.838Z,99596.63
2023-02-12T02:14:35.386Z,99602.91
2023-02-12T02:17:34.770Z,99587.97
2023-02-12T02:20:45.741Z,99588.78
2023-02-12T02:23:43.038Z,99584.06
2023-02-12T02:26:35.917Z,99588.03
2023-02-12T02:29:26.306Z,99580.13
2023-02-12T02:32:06.584Z,99579.34
2023-02-12T02:34:44.798Z,99574.19
2023-02-12T02:37:22.040Z,99566.75
2023-02-12T02:39:56.802Z,99565.19
2023-02-12T02:42:33.020Z,99561.69
2023-02-12T02:45:11.489Z,99567.59
2023-02-12T02:47:49.980Z,99571.47
2023-02-12T02:50:24.416Z,99569.16
2023-02-12T02:53:00.459Z,99575.44
2023-02-12T02:55:35.677Z,99563.66
2023-02-12T02:58:13.440Z,99574.25
2023-02-12T03:00:49.064Z,99569.91
2023-02-12T03:03:27.592Z,99579.75
2023-02-12T03:06:05.535Z,99582.09
2023-02-12T03:08:41.968Z,99587.66
2023-02-12T03:11:21.235Z,99587.66
2023-02-12T03:13:57.660Z,99588.06
2023-02-12T03:16:31.206Z,99586.47
2023-02-12T03:19:11.541Z,99592.38
2023-02-12T03:21:49.118Z,99595.47
2023-02-12T03:24:26.117Z,99597.44
2023-02-12T03:27:10.651Z,99606.91
2023-02-12T03:29:41.193Z,99606.94
2023-02-12T03:32:27.190Z,99606.50
2023-02-12T03:35:13.235Z,99617.91
2023-02-12T03:37:54.409Z,99621.06
2023-02-12T03:40:32.089Z,99620.31
2023-02-12T03:43:10.025Z,99614.00
2023-02-12T03:45:49.540Z,99623.78
2023-02-12T03:48:28.883Z,99627.34
2023-02-12T03:51:07.377Z,99637.59
2023-02-12T03:53:37.694Z,99632.06
2023-02-12T03:56:14.108Z,99636.75
2023-02-12T03:58:46.778Z,99638.72
2023-02-12T04:01:17.912Z,99644.63
2023-02-12T04:03:48.078Z,99645.03
2023-02-12T04:06:29.182Z,99656.84
2023-02-12T04:09:04.354Z,99657.97
2023-02-12T04:11:48.050Z,99656.41
2023-02-12T04:14:30.226Z,99655.22
2023-02-12T04:17:11.627Z,99656.38
2023-02-12T04:20:04.472Z,99668.19
2023-02-12T04:22:53.264Z,99659.50
2023-02-12T04:25:41.891Z,99666.19
2023-02-12T04:28:21.224Z,99666.97
2023-02-12T04:31:02.022Z,99664.22
2023-02-12T04:33:40.584Z,99661.91
2023-02-12T04:36:17.261Z,99664.63
2023-02-12T04:38:55.513Z,99661.09
2023-02-12T04:41:26.084Z,99668.22
2023-02-12T04:43:56.868Z,99673.31
2023-02-12T04:46:27.303Z,99662.69
2023-02-12T04:49:01.415Z,99674.50
2023-02-12T04:51:31.916Z,99665.81
2023-02-12T04:54:04.871Z,99667.03
2023-02-12T04:56:35.224Z,99668.22
2023-02-12T04:59:06.131Z,99673.72
2023-02-12T05:01:38.460Z,99665.03
2023-02-12T05:04:10.648Z,99671.69
2023-02-12T05:06:42.558Z,99675.25
2023-02-12T05:09:19.422Z,99677.66
2023-02-12T05:11:49.916Z,99672.09
2023-02-12T05:14:20.370Z,99678.81
2023-02-12T05:16:50.812Z,99683.91
2023-02-12T05:19:21.083Z,99680.38
2023-02-12T05:21:53.832Z,99676.00
2023-02-12T05:24:26.977Z,99678.41
2023-02-12T05:26:57.364Z,99686.66
2023-02-12T05:29:27.684Z,99688.22
2023-02-12T05:31:58.214Z,99680.84
2023-02-12T05:34:28.644Z,99681.59
2023-02-12T05:36:58.949Z,99681.59
2023-02-12T05:39:31.925Z,99689.06
2023-02-12T05:42:02.201Z,99688.66
2023-02-12T05:44:32.461Z,99687.50
2023-02-12T05:47:02.776Z,99689.44
2023-02-12T05:49:33.491Z,99687.09
2023-02-12T05:52:03.855Z,99689.47
2023-02-12T05:54:37.066Z,99699.69
2023-02-12T05:57:07.390Z,99695.38
2023-02-12T05:59:37.668Z,99698.88
2023-02-12T06:02:08.020Z,99703.25
2023-02-12T06:04:38.311Z,99709.94
2023-02-12T06:07:08.890Z,99704.38
2023-02-12T06:09:41.820Z,99700.47
2023-02-12T06:12:12.110Z,99704.41
2023-02-12T06:14:44.738Z,99709.91
2023-02-12T06:17:18.038Z,99710.69
2023-02-12T06:19:48.337Z,99716.97
2023-02-12T06:22:18.628Z,99715.84
2023-02-12T06:24:51.618Z,99716.97
2023-02-12T06:27:21.915Z,99720.09
2023-02-12T06:29:52.352Z,99724.41
2023-02-12T06:32:22.692Z,99734.19
2023-02-12T06:34:53.070Z,99737.72
2023-02-12T06:37:23.367Z,99739.28
2023-02-12T06:39:56.346Z,99733.75
2023-02-12T06:42:26.621Z,99736.09
2023-02-12T06:44:56.986Z,99741.22
2023-02-12T06:47:27.433Z,99742.50
2023-02-12T06:49:57.915Z,99745.25
2023-02-12T06:52:28.289Z,99748.41
2023-02-12T06:55:01.242Z,99742.16
2023-02-12T06:57:32.662Z,99750.03
2023-02-12T07:00:02.993Z,99752.75
2023-02-12T07:02:33.370Z,99760.63
2023-02-12T07:05:03.725Z,99763.38
2023-02-12T07:07:34.040Z,99763.00
2023-02-12T07:10:08.854Z,99764.94
2023-02-12T07:12:39.217Z,99771.19
2023-02-12T07:15:10.897Z,99768.03
2023-02-12T07:17:41.345Z,99769.25
2023-02-12T07:20:13.412Z,99766.47
2023-02-12T07:22:43.719Z,99770.41
2023-02-12T07:25:16.601Z,99768.81
2023-02-12T07:27:46.929Z,99772.00
2023-02-12T07:30:19.827Z,99777.16
2023-02-12T07:32:50.184Z,99771.22
2023-02-12T07:35:20.716Z,99776.72
2023-02-12T07:37:51.084Z,99783.41
2023-02-12T07:40:24.178Z,99776.38
2023-02-12T07:42:58.643Z,99776.75
2023-02-12T07:45:29.173Z,99775.91
2023-02-12T07:47:59.596Z,99780.63
2023-02-12T07:50:30.104Z,99784.19
2023-02-12T07:53:01.256Z,99786.50
2023-02-12T07:55:34.232Z,99781.75
2023-02-12T07:58:04.665Z,99778.59
2023-02-12T08:00:35.147Z,99784.91
2023-02-12T08:03:05.699Z,99778.97
2023-02-12T08:05:36.097Z,99784.09
2023-02-12T08:08:06.553Z,99785.25
2023-02-12T08:10:39.737Z,99789.16
2023-02-12T08:13:10.054Z,99789.94
2023-02-12T08:15:40.388Z,99791.88
2023-02-12T08:18:10.889Z,99786.72
2023-02-12T08:20:41.256Z,99786.69
2023-02-12T08:23:11.550Z,99793.03
2023-02-12T08:25:44.419Z,99789.09
2023-02-12T08:28:14.725Z,99800.47
2023-02-12T08:30:45.239Z,99796.19
2023-02-12T08:33:15.654Z,99800.88
2023-02-12T08:35:45.998Z,99806.00
2023-02-12T08:38:16.411Z,99802.47
2023-02-12T08:40:49.400Z,99805.25
2023-02-12T08:43:19.706Z,99808.81
2023-02-12T08:45:50.046Z,99799.72
2023-02-12T08:48:20.767Z,99801.69
2023-02-12T08:50:51.251Z,99807.97
2023-02-12T08:53:21.680Z,99807.59
2023-02-12T08:55:55.090Z,99806.41
2023-02-12T08:58:25.608Z,99811.91
2023-02-12T09:00:56.099Z,99813.44
2023-02-12T09:03:26.990Z,99813.47
2023-02-12T09:05:57.760Z,99823.34
2023-02-12T09:08:28.343Z,99828.44
2023-02-12T09:11:01.447Z,99820.63
2023-02-12T09:13:31.778Z,99811.94
2023-02-12T09:16:05.508Z,99824.94
2023-02-12T09:18:36.830Z,99828.84
2023-02-12T09:21:09.837Z,99834.69
2023-02-12T09:23:41.371Z,99837.44
2023-02-12T09:26:18.049Z,99847.72
2023-02-12T09:28:48.763Z,99855.97
2023-02-12T09:31:26.560Z,99851.59
2023-02-12T09:34:01.153Z,99865.75
2023-02-12T09:36:31.719Z,99866.53
2023-02-12T09:39:04.073Z,99875.56
2023-02-12T09:42:12.843Z,99865.69
2023-02-12T09:44:50.316Z,99875.59
2023-02-12T09:47:27.076Z,99877.94
2023-02-12T09:50:15.106Z,99882.59
2023-02-12T09:52:45.908Z,99875.47
2023-02-12T09:55:19.809Z,99883.72
2023-02-12T09:57:54.898Z,99882.94
2023-02-12T10:00:31.769Z,99884.91
2023-02-12T10:03:07.350Z,99880.13
2023-02-12T10:05:44.383Z,99884.44
2023-02-12T10:08:31.464Z,99885.63
2023-02-12T10:11:19.017Z,99884.81
2023-02-12T10:14:06.079Z,99883.31
2023-02-12T10:16:55.698Z,99891.16
2023-02-12T10:19:41.814Z,99887.22
2023-02-12T10:22:24.435Z,99891.22
2023-02-12T10:25:11.174Z,99895.53
2023-02-12T10:27:46.540Z,99893.16
2023-02-12T10:30:27.124Z,99897.56
2023-02-12T10:33:05.198Z,99890.50
2023-02-12T10:35:38.049Z,99892.44
2023-02-12T10:38:18.044Z,99893.63
2023-02-12T10:40:50.422Z,99893.66
2023-02-12T10:43:20.790Z,99894.88
2023-02-12T10:45:54.053Z,99895.38
2023-02-12T10:48:27.318Z,99892.22
2023-02-12T10:51:39.196Z,99884.75
2023-02-12T10:54:41.644Z,99882.69
2023-02-12T10:57:20.783Z,99875.53
2023-02-12T10:59:53.592Z,99886.22
2023-02-12T11:02:30.633Z,99883.38
2023-02-12T11:05:03.660Z,99883.81
2023-02-12T11:07:51.307Z,99884.19
2023-02-12T11:10:32.067Z,99879.81
2023-02-12T11:13:03.511Z,99878.19
2023-02-12T11:15:41.767Z,99868.38
2023-02-12T11:18:26.438Z,99871.97
2023-02-12T11:21:00.878Z,99877.00
2023-02-12T11:23:34.500Z,99875.81
2023-02-12T11:26:07.614Z,99881.38
2023-02-12T11:28:40.475Z,99875.88
2023-02-12T11:31:26.251Z,99882.25
2023-02-12T11:34:19.807Z,99879.91
2023-02-12T11:36:53.591Z,99872.78
2023-02-12T11:39:27.609Z,99868.81
2023-02-12T11:41:59.993Z,99868.03
2023-02-12T11:44:35.702Z,99861.28
2023-02-12T11:47:12.258Z,99867.94
2023-02-12T11:49:52.472Z,99857.59
2023-02-12T11:52:26.646Z,99869.03
2023-02-12T11:55:01.466Z,99867.41
2023-02-12T11:57:47.870Z,99854.38
2023-02-12T12:00:24.107Z,99857.88
2023-02-12T12:03:02.601Z,99863.47
2023-02-12T12:05:41.514Z,99854.38
2023-02-12T12:08:24.457Z,99859.97
2023-02-12T12:11:02.994Z,99858.78
2023-02-12T12:13:40.049Z,99857.50
2023-02-12T12:16:28.995Z,99858.28
2023-02-12T12:19:16.843Z,99854.78
2023-02-12T12:21:58.791Z,99857.19
2023-02-12T12:24:41.919Z,99852.50
2023-02-12T12:27:47.893Z,99858.47
2023-02-12T12:30:26.989Z,99853.75
2023-02-12T12:33:00.905Z,99865.53
2023-02-12T12:35:47.010Z,99855.28
2023-02-12T12:38:35.139Z,99854.13
2023-02-12T12:41:13.455Z,99853.78
2023-02-12T12:44:02.142Z,99852.22
2023-02-12T12:47:04.776Z,99847.44
2023-02-12T12:49:53.933Z,99847.03
2023-02-12T12:52:48.823Z,99843.88
2023-02-12T12:55:57.740Z,99839.56
2023-02-12T12:58:41.765Z,99843.19
2023-02-12T13:01:48.179Z,99854.22
2023-02-12T13:04:55.705Z,99842.38
2023-02-12T13:07:49.357Z,99844.69
2023-02-12T13:10:36.794Z,99852.16
2023-02-12T13:13:29.566Z,99850.97
2023-02-12T13:16:06.650Z,99841.56
2023-02-12T13:18:52.972Z,99843.06
2023-02-12T13:21:40.044Z,99844.47
2023-02-12T13:24:24.733Z,99839.06
2023-02-12T13:27:00.793Z,99852.75
2023-02-12T13:29:38.153Z,99842.09
2023-02-12T13:32:17.398Z,99837.00
2023-02-12T13:34:48.489Z,99834.31
2023-02-12T13:37:23.753Z,99831.63
2023-02-12T13:39:56.192Z,99828.78
2023-02-12T13:42:48.474Z,99838.59
2023-02-12T13:45:33.174Z,99827.31
2023-02-12T13:48:35.855Z,99831.91
2023-02-12T13:51:17.619Z,99833.88
2023-02-12T13:54:07.298Z,99825.56
2023-02-12T13:56:44.963Z,99836.59
2023-02-12T13:59:49.372Z,99831.09
2023-02-12T14:02:46.529Z,99841.44
2023-02-12T14:05:34.966Z,99841.84
2023-02-12T14:08:09.423Z,99835.16
2023-02-12T14:10:43.518Z,99832.09
2023-02-12T14:13:25.376Z,99830.78
2023-02-12T14:16:01.227Z,99834.28
2023-02-12T14:18:35.852Z,99838.56
2023-02-12T14:21:45.679Z,99838.59
2023-02-12T14:24:53.092Z,99838.59
2023-02-12T14:27:47.951Z,99834.66
2023-02-12T14:30:40.366Z,99838.16
2023-02-12T14:33:31.856Z,99842.41
2023-02-12T14:36:20.965Z,99842.50
2023-02-12T14:39:32.407Z,99837.78
2023-02-12T14:42:47.588Z,99843.38
2023-02-12T14:45:36.780Z,99840.69
2023-02-12T14:48:08.812Z,99839.63
2023-02-12T14:50:52.257Z,99847.69
2023-02-12T14:53:40.774Z,99841.25
2023-02-12T14:56:12.750Z,99840.06
2023-02-12T14:58:43.396Z,99836.28
2023-02-12T15:01:13.923Z,99837.22
2023-02-12T15:03:50.135Z,99842.41
2023-02-12T15:06:27.818Z,99845.88
2023-02-12T15:09:06.148Z,99843.41
2023-02-12T15:11:46.509Z,99844.97
2023-02-12T15:14:23.190Z,99842.22
2023-02-12T15:17:00.193Z,99843.75
2023-02-12T15:19:43.168Z,99835.34
2023-02-12T15:22:29.989Z,99831.59
2023-02-12T15:25:18.246Z,99836.03
2023-02-12T15:27:52.493Z,99841.59
2023-02-12T15:30:27.049Z,99840.69
2023-02-12T15:33:00.455Z,99855.66
2023-02-12T15:35:33.552Z,99848.06
2023-02-12T15:38:07.928Z,99837.88
2023-02-12T15:40:38.555Z,99842.66
2023-02-12T15:43:20.882Z,99836.16
2023-02-12T15:45:55.975Z,99838.94
2023-02-12T15:48:34.242Z,99827.22
2023-02-12T15:51:11.985Z,99838.22
2023-02-12T15:53:45.702Z,99837.09
2023-02-12T15:56:19.107Z,99838.69
2023-02-12T15:58:52.561Z,99852.09
2023-02-12T16:01:25.597Z,99845.75
2023-02-12T16:03:58.508Z,99852.06
2023-02-12T16:06:34.353Z,99845.78
2023-02-12T16:09:12.442Z,99840.63
2023-02-12T16:11:46.287Z,99846.81
2023-02-12T16:14:26.013Z,99857.81
2023-02-12T16:16:58.944Z,99858.16
2023-02-12T16:19:33.791Z,99858.53
2023-02-12T16:22:11.646Z,99854.94
2023-02-12T16:24:50.642Z,99861.19
2023-02-12T16:27:24.611Z,99864.69
2023-02-12T16:29:57.450Z,99863.91
2023-02-12T16:32:39.319Z,99882.81
2023-02-12T16:35:28.814Z,99882.81
2023-02-12T16:38:05.256Z,99881.22
2023-02-12T16:40:39.757Z,99883.97
2023-02-12T16:43:29.449Z,99888.28
2023-02-12T16:46:08.729Z,99896.16
2023-02-12T16:48:44.812Z,99885.50
2023-02-12T16:51:27.565Z,99885.94
2023-02-12T16:54:00.310Z,99902.88
2023-02-12T16:56:38.650Z,99890.22
2023-02-12T16:59:10.098Z,99896.53
2023-02-12T17:01:40.557Z,99898.16
2023-02-12T17:04:17.583Z,99902.91
2023-02-12T17:06:47.920Z,99888.75
2023-02-12T17:09:18.274Z,99887.22
2023-02-12T17:11:51.251Z,99889.59
2023-02-12T17:14:23.504Z,99889.16
2023-02-12T17:16:54.310Z,99899.78
2023-02-12T17:19:24.679Z,99895.84
2023-02-12T17:21:55.022Z,99897.44
2023-02-12T17:24:29.449Z,99901.38
2023-02-12T17:27:02.634Z,99907.72
2023-02-12T17:29:33.588Z,99913.66
2023-02-12T17:32:04.157Z,99905.75
2023-02-12T17:34:47.630Z,99908.53
2023-02-12T17:37:18.637Z,99907.72
2023-02-12T17:39:49.260Z,99904.53
2023-02-12T17:42:22.326Z,99909.25
2023-02-12T17:44:52.708Z,99911.63
2023-02-12T17:47:23.364Z,99917.19
2023-02-12T17:49:53.870Z,99917.25
2023-02-12T17:52:24.299Z,99911.72
2023-02-12T17:54:54.664Z,99918.00
2023-02-12T17:57:27.724Z,99916.47
2023-02-12T17:59:58.170Z,99913.75
2023-02-12T18:02:28.739Z,99922.81
2023-02-12T18:04:59.218Z,99916.53
2023-02-12T18:07:29.585Z,99920.47
2023-02-12T18:09:59.930Z,99918.47
2023-02-12T18:12:34.124Z,99914.50
2023-02-12T18:15:07.895Z,99918.41
2023-02-12T18:17:38.587Z,99919.22
2023-02-12T18:20:11.483Z,99919.69
2023-02-12T18:22:41.887Z,99916.56
2023-02-12T18:25:12.336Z,99920.94
2023-02-12T18:27:45.456Z,99915.78
2023-02-12T18:30:18.113Z,99917.72
2023-02-12T18:32:49.028Z,99923.25
2023-02-12T18:35:19.693Z,99916.59
2023-02-12T18:37:50.431Z,99928.41
2023-02-12T18:40:21.226Z,99919.78
2023-02-12T18:42:54.214Z,99924.50
2023-02-12T18:45:24.561Z,99918.59
2023-02-12T18:47:54.853Z,99911.06
2023-02-12T18:50:25.145Z,99915.81
2023-02-12T18:52:55.450Z,99908.69
2023-02-12T18:55:25.838Z,99916.19
2023-02-12T18:57:58.830Z,99911.44
2023-02-12T19:00:29.503Z,99912.22
2023-02-12T19:02:59.910Z,99908.63
2023-02-12T19:05:30.380Z,99914.94
2023-02-12T19:08:00.776Z,99909.44
2023-02-12T19:10:31.436Z,99895.22
2023-02-12T19:13:04.417Z,99909.47
2023-02-12T19:15:34.833Z,99907.06
2023-02-12T19:18:05.178Z,99903.91
2023-02-12T19:20:36.018Z,99899.59
2023-02-12T19:23:06.460Z,99899.22
2023-02-12T19:25:42.810Z,99897.28
2023-02-12T19:28:16.350Z,99900.09
2023-02-12T19:30:46.687Z,99902.09
2023-02-12T19:33:17.088Z,99893.38
2023-02-12T19:35:47.403Z,99898.09
2023-02-12T19:38:18.995Z,99899.31
2023-02-12T19:40:49.316Z,99902.81
2023-02-12T19:43:22.266Z,99902.75
2023-02-12T19:45:52.613Z,99896.88
2023-02-12T19:48:23.411Z,99902.44
2023-02-12T19:50:53.899Z,99900.44
2023-02-12T19:53:24.428Z,99894.91
2023-02-12T19:55:54.872Z,99900.03
2023-02-12T19:58:27.904Z,99898.06
2023-02-12T20:00:58.206Z,99900.00
2023-02-12T20:03:29.225Z,99905.13
2023-02-12T20:06:04.387Z,99904.72
2023-02-12T20:08:36.319Z,99908.69
2023-02-12T20:11:09.776Z,99901.53
2023-02-12T20:13:42.829Z,99904.69
2023-02-12T20:16:16.127Z,99896.81
2023-02-12T20:18:47.498Z,99908.72
2023-02-12T20:21:21.168Z,99910.34
2023-02-12T20:23:51.669Z,99909.56
2023-02-12T20:26:22.532Z,99904.47
2023-02-12T20:28:55.553Z,99906.41
2023-02-12T20:31:31.073Z,99908.78
2023-02-12T20:34:04.977Z,99908.75
2023-02-12T20:36:37.192Z,99908.75
2023-02-12T20:39:10.470Z,99908.72
2023-02-12T20:41:41.094Z,99910.69
2023-02-12T20:44:20.364Z,99913.44
2023-02-12T20:46:55.720Z,99907.09
2023-02-12T20:49:28.391Z,99909.84
2023-02-12T20:51:58.852Z,99904.38
2023-02-12T20:54:29.244Z,99903.94
2023-02-12T20:56:59.594Z,99904.75
2023-02-12T20:59:32.572Z,99896.84
2023-02-12T21:02:03.115Z,99902.41
2023-02-12T21:04:33.585Z,99901.72
2023-02-12T21:07:03.952Z,99899.75
2023-02-12T21:09:34.295Z,99905.22
2023-02-12T21:12:04.624Z,99895.06
2023-02-12T21:14:37.601Z,99901.38
2023-02-12T21:17:07.963Z,99902.19
2023-02-12T21:19:38.328Z,99902.56
2023-02-12T21:22:08.775Z,99904.53
2023-02-12T21:24:39.166Z,99902.97
2023-02-12T21:27:10.986Z,99912.84
2023-02-12T21:29:43.958Z,99910.06
2023-02-12T21:32:14.320Z,99915.63
2023-02-12T21:34:45.409Z,99920.34
2023-02-12T21:37:16.916Z,99919.50
2023-02-12T21:39:47.320Z,99921.09
2023-02-12T21:42:17.755Z,99922.28
2023-02-12T21:44:50.796Z,99926.19
2023-02-12T21:47:21.141Z,99923.78
2023-02-12T21:49:52.147Z,99929.66
2023-02-12T21:52:22.575Z,99924.16
2023-02-12T21:54:53.678Z,99921.75
2023-02-12T21:57:23.694Z,99925.31
2023-02-12T21:59:56.585Z,99924.50
2023-02-12T22:02:27.000Z,99925.69
2023-02-12T22:04:57.644Z,99924.09
2023-02-12T22:07:28.106Z,99935.13
2023-02-12T22:09:59.132Z,99934.34
2023-02-12T22:12:32.448Z,99932.38
2023-02-12T22:15:05.427Z,99927.25
2023-02-12T22:17:36.252Z,99931.97
2023-02-12T22:20:07.165Z,99929.59
2023-02-12T22:22:37.603Z,99923.72
2023-02-12T22:25:09.214Z,99922.22
2023-02-12T22:27:39.582Z,99919.88
2023-02-12T22:30:14.195Z,99921.09
2023-02-12T22:32:44.786Z,99918.72
2023-02-12T22:35:15.407Z,99926.19
2023-02-12T22:37:45.902Z,99922.59
2023-02-12T22:40:18.301Z,99917.50
2023-02-12T22:42:48.673Z,99921.09
2023-02-12T22:45:21.812Z,99916.06
2023-02-12T22:47:52.156Z,99924.34
2023-02-12T22:50:22.587Z,99925.59
2023-02-12T22:52:52.962Z,99910.66
2023-02-12T22:55:23.273Z,99913.84
2023-02-12T22:57:54.067Z,99920.91
2023-02-12T23:00:27.419Z,99919.75
2023-02-12T23:02:57.724Z,99921.28
2023-02-12T23:05:28.288Z,99924.78
2023-02-12T23:07:58.718Z,99923.19
2023-02-12T23:10:29.178Z,99916.91
2023-02-12T23:12:59.595Z,99926.34
2023-02-12T23:15:33.121Z,99918.09
2023-02-12T23:18:03.468Z,99919.69
2023-02-12T23:20:33.831Z,99916.13
2023-02-12T23:23:04.156Z,99916.16
2023-02-12T23:25:34.523Z,99918.53
2023-02-12T23:28:04.919Z,99916.94
2023-02-12T23:30:38.130Z,99918.94
2023-02-12T23:33:09.599Z,99916.91
2023-02-12T23:35:40.054Z,99914.94
2023-02-12T23:38:10.523Z,99920.09
2023-02-12T23:40:41.299Z,99910.22
2023-02-12T23:43:12.029Z,99920.06
2023-02-12T23:45:46.955Z,99912.22
2023-02-12T23:48:18.220Z,99911.41
2023-02-12T23:50:50.103Z,99908.69
2023-02-12T23:53:20.741Z,99904.38
2023-02-12T23:55:53.309Z,99907.09
2023-02-12T23:58:23.598Z,99909.88
